Gambell Airport Gambell US
ICAO: PAGM
IATA:
Category: Medium
Scheduled Services:

Elevation: 27 ft
TransAlt. 0 ft.

Airport Communications:
AWOS 3:125.9
ANCHORAGE CNTR:132.2
CTAF:122.7
NOME RDO:122
TWEB:36.9

PAGM Zoom In..

If you have problems with the map follow the link
https://www.worldairports.se/pages/airport.php?
ICAO=PAGM

Runways:

(A) RW 16 length 4499 ft width 96 ft
---- / hdg 160

(B) RW 34 length 4499 ft width 96 ft
---- / hdg 340

Location; PAGM
Day. 14 / Time. 15.04 Zulu
* Altimeter: 29.34
* Temperature: -01° c. -30.2°f.
* Wind from: 110° Speed 19 kn with Gusts up to 26 kn.
Dewpoint: -02° c.
Visibility: 10 Statute Miles.
Clouds: Few 800 ft.

PAGM 141504Z AUTO 11019G26KT 10SM FEW008 M01/M02 A2934 RMK AO2 PK WND 11026/1502 FZRANO


Wind From 110°
Speed 19 kn.

 
 
jpsmedia worldairports.se 2019   terms of use